sensor_id;sensor_type;location;lat;lon;timestamp;temperature;humidity
29539;DHT22;16482;51.046;4.498;2023-05-19T00:01:15;23.80;32.20
29539;DHT22;16482;51.046;4.498;2023-05-19T00:03:52;23.90;32.20
29539;DHT22;16482;51.046;4.498;2023-05-19T00:06:26;23.90;32.20
29539;DHT22;16482;51.046;4.498;2023-05-19T00:09:01;23.90;32.10
29539;DHT22;16482;51.046;4.498;2023-05-19T00:11:28;23.90;32.20
29539;DHT22;16482;51.046;4.498;2023-05-19T00:13:56;23.80;32.20
29539;DHT22;16482;51.046;4.498;2023-05-19T00:16:24;23.80;32.10
29539;DHT22;16482;51.046;4.498;2023-05-19T00:18:51;23.80;32.10
29539;DHT22;16482;51.046;4.498;2023-05-19T00:21:18;23.80;32.20
29539;DHT22;16482;51.046;4.498;2023-05-19T00:23:47;23.80;32.20
29539;DHT22;16482;51.046;4.498;2023-05-19T00:26:19;23.80;32.30
29539;DHT22;16482;51.046;4.498;2023-05-19T00:28:48;23.80;32.30
29539;DHT22;16482;51.046;4.498;2023-05-19T00:31:17;23.80;32.20
29539;DHT22;16482;51.046;4.498;2023-05-19T00:33:46;23.80;32.30
29539;DHT22;16482;51.046;4.498;2023-05-19T00:36:20;23.80;32.20
29539;DHT22;16482;51.046;4.498;2023-05-19T00:38:46;23.80;32.30
29539;DHT22;16482;51.046;4.498;2023-05-19T00:41:18;23.80;32.20
29539;DHT22;16482;51.046;4.498;2023-05-19T00:43:45;23.80;32.30
29539;DHT22;16482;51.046;4.498;2023-05-19T00:46:14;23.80;32.30
29539;DHT22;16482;51.046;4.498;2023-05-19T00:48:46;23.80;32.30
29539;DHT22;16482;51.046;4.498;2023-05-19T00:51:15;23.80;32.30
29539;DHT22;16482;51.046;4.498;2023-05-19T00:53:49;23.80;32.20
29539;DHT22;16482;51.046;4.498;2023-05-19T00:56:25;23.80;32.30
29539;DHT22;16482;51.046;4.498;2023-05-19T00:58:51;23.80;32.20
29539;DHT22;16482;51.046;4.498;2023-05-19T01:01:21;23.80;32.30
29539;DHT22;16482;51.046;4.498;2023-05-19T01:03:47;23.80;32.30
29539;DHT22;16482;51.046;4.498;2023-05-19T01:06:13;23.80;32.30
29539;DHT22;16482;51.046;4.498;2023-05-19T01:08:47;23.80;32.30
29539;DHT22;16482;51.046;4.498;2023-05-19T01:11:15;23.80;32.30
29539;DHT22;16482;51.046;4.498;2023-05-19T01:13:44;23.80;32.30
29539;DHT22;16482;51.046;4.498;2023-05-19T01:18:56;23.80;32.20
29539;DHT22;16482;51.046;4.498;2023-05-19T01:24:22;23.80;32.20
29539;DHT22;16482;51.046;4.498;2023-05-19T01:30:17;23.80;32.20
29539;DHT22;16482;51.046;4.498;2023-05-19T01:32:58;23.70;32.20
29539;DHT22;16482;51.046;4.498;2023-05-19T01:35:28;23.70;32.30
29539;DHT22;16482;51.046;4.498;2023-05-19T01:38:03;23.70;32.30
29539;DHT22;16482;51.046;4.498;2023-05-19T01:40:39;23.70;32.20
29539;DHT22;16482;51.046;4.498;2023-05-19T01:43:10;23.70;32.20
29539;DHT22;16482;51.046;4.498;2023-05-19T01:45:37;23.70;32.20
29539;DHT22;16482;51.046;4.498;2023-05-19T01:48:06;23.70;32.20
29539;DHT22;16482;51.046;4.498;2023-05-19T01:50:33;23.70;32.20
29539;DHT22;16482;51.046;4.498;2023-05-19T01:53:00;23.70;32.20
29539;DHT22;16482;51.046;4.498;2023-05-19T01:55:29;23.70;32.10
29539;DHT22;16482;51.046;4.498;2023-05-19T02:09:38;23.70;32.10
29539;DHT22;16482;51.046;4.498;2023-05-19T02:12:24;23.70;32.20
29539;DHT22;16482;51.046;4.498;2023-05-19T02:17:33;23.70;32.20
29539;DHT22;16482;51.046;4.498;2023-05-19T02:20:05;23.70;32.20
29539;DHT22;16482;51.046;4.498;2023-05-19T02:22:31;23.70;32.20
29539;DHT22;16482;51.046;4.498;2023-05-19T02:24:57;23.70;32.30
29539;DHT22;16482;51.046;4.498;2023-05-19T02:27:23;23.70;32.20
29539;DHT22;16482;51.046;4.498;2023-05-19T02:29:58;23.70;32.30
29539;DHT22;16482;51.046;4.498;2023-05-19T02:32:24;23.70;32.30
29539;DHT22;16482;51.046;4.498;2023-05-19T02:34:50;23.70;32.30
29539;DHT22;16482;51.046;4.498;2023-05-19T02:37:17;23.70;32.30
29539;DHT22;16482;51.046;4.498;2023-05-19T02:39:44;23.70;32.30
29539;DHT22;16482;51.046;4.498;2023-05-19T02:42:10;23.70;32.20
29539;DHT22;16482;51.046;4.498;2023-05-19T02:44:37;23.70;32.30
29539;DHT22;16482;51.046;4.498;2023-05-19T02:47:05;23.70;32.30
29539;DHT22;16482;51.046;4.498;2023-05-19T02:49:41;23.70;32.20
29539;DHT22;16482;51.046;4.498;2023-05-19T02:52:07;23.70;32.30
29539;DHT22;16482;51.046;4.498;2023-05-19T02:54:36;23.70;32.30
29539;DHT22;16482;51.046;4.498;2023-05-19T02:57:05;23.70;32.30
29539;DHT22;16482;51.046;4.498;2023-05-19T02:59:40;23.70;32.20
29539;DHT22;16482;51.046;4.498;2023-05-19T03:02:07;23.70;32.30
29539;DHT22;16482;51.046;4.498;2023-05-19T03:04:38;23.70;32.30
29539;DHT22;16482;51.046;4.498;2023-05-19T03:07:08;23.70;32.30
29539;DHT22;16482;51.046;4.498;2023-05-19T03:09:38;23.60;32.20
29539;DHT22;16482;51.046;4.498;2023-05-19T03:12:07;23.70;32.30
29539;DHT22;16482;51.046;4.498;2023-05-19T03:14:36;23.70;32.30
29539;DHT22;16482;51.046;4.498;2023-05-19T03:17:07;23.70;32.30
29539;DHT22;16482;51.046;4.498;2023-05-19T03:19:35;23.70;32.40
29539;DHT22;16482;51.046;4.498;2023-05-19T03:22:09;23.60;32.30
29539;DHT22;16482;51.046;4.498;2023-05-19T03:24:45;23.70;32.30
29539;DHT22;16482;51.046;4.498;2023-05-19T03:27:20;23.60;32.30
29539;DHT22;16482;51.046;4.498;2023-05-19T03:29:46;23.60;32.30
29539;DHT22;16482;51.046;4.498;2023-05-19T03:32:12;23.60;32.40
29539;DHT22;16482;51.046;4.498;2023-05-19T03:34:38;23.60;32.30
29539;DHT22;16482;51.046;4.498;2023-05-19T03:37:06;23.60;32.40
29539;DHT22;16482;51.046;4.498;2023-05-19T03:39:37;23.60;32.40
29539;DHT22;16482;51.046;4.498;2023-05-19T03:42:05;23.60;32.50
29539;DHT22;16482;51.046;4.498;2023-05-19T03:44:35;23.60;32.40
29539;DHT22;16482;51.046;4.498;2023-05-19T03:47:11;23.60;32.50
29539;DHT22;16482;51.046;4.498;2023-05-19T03:49:37;23.60;32.50
29539;DHT22;16482;51.046;4.498;2023-05-19T03:52:08;23.70;32.50
29539;DHT22;16482;51.046;4.498;2023-05-19T03:54:35;23.60;32.40
29539;DHT22;16482;51.046;4.498;2023-05-19T03:57:06;23.60;32.40
29539;DHT22;16482;51.046;4.498;2023-05-19T03:59:35;23.60;32.50
29539;DHT22;16482;51.046;4.498;2023-05-19T04:02:11;23.60;32.50
29539;DHT22;16482;51.046;4.498;2023-05-19T04:04:37;23.60;32.50
29539;DHT22;16482;51.046;4.498;2023-05-19T04:07:06;23.60;32.50
29539;DHT22;16482;51.046;4.498;2023-05-19T04:09:41;23.60;32.60
29539;DHT22;16482;51.046;4.498;2023-05-19T04:12:07;23.70;32.60
29539;DHT22;16482;51.046;4.498;2023-05-19T04:14:36;23.60;32.50
29539;DHT22;16482;51.046;4.498;2023-05-19T04:17:05;23.60;32.60
29539;DHT22;16482;51.046;4.498;2023-05-19T04:19:40;23.60;32.60
29539;DHT22;16482;51.046;4.498;2023-05-19T04:22:06;23.60;32.60
29539;DHT22;16482;51.046;4.498;2023-05-19T04:24:37;23.60;32.60
29539;DHT22;16482;51.046;4.498;2023-05-19T04:27:06;23.60;32.70
29539;DHT22;16482;51.046;4.498;2023-05-19T04:29:41;23.60;32.60
29539;DHT22;16482;51.046;4.498;2023-05-19T04:32:07;23.60;32.70
29539;DHT22;16482;51.046;4.498;2023-05-19T04:34:36;23.60;32.70
29539;DHT22;16482;51.046;4.498;2023-05-19T04:37:15;23.60;32.70
29539;DHT22;16482;51.046;4.498;2023-05-19T04:39:42;23.60;32.80
29539;DHT22;16482;51.046;4.498;2023-05-19T04:42:09;23.60;32.80
29539;DHT22;16482;51.046;4.498;2023-05-19T04:44:37;23.60;32.80
29539;DHT22;16482;51.046;4.498;2023-05-19T04:47:07;23.60;33.40
29539;DHT22;16482;51.046;4.498;2023-05-19T04:49:36;23.60;32.80
29539;DHT22;16482;51.046;4.498;2023-05-19T04:52:12;23.60;32.80
29539;DHT22;16482;51.046;4.498;2023-05-19T04:54:38;23.60;32.90
29539;DHT22;16482;51.046;4.498;2023-05-19T04:57:06;23.60;32.90
29539;DHT22;16482;51.046;4.498;2023-05-19T04:59:36;23.60;32.90
29539;DHT22;16482;51.046;4.498;2023-05-19T05:02:10;23.60;32.90
29539;DHT22;16482;51.046;4.498;2023-05-19T05:04:36;23.50;32.80
29539;DHT22;16482;51.046;4.498;2023-05-19T05:07:08;23.60;32.90
29539;DHT22;16482;51.046;4.498;2023-05-19T05:09:41;23.60;32.90
29539;DHT22;16482;51.046;4.498;2023-05-19T05:14:53;23.60;32.90
29539;DHT22;16482;51.046;4.498;2023-05-19T05:17:19;23.50;32.90
29539;DHT22;16482;51.046;4.498;2023-05-19T05:19:46;23.50;33.00
29539;DHT22;16482;51.046;4.498;2023-05-19T05:22:13;23.50;33.10
29539;DHT22;16482;51.046;4.498;2023-05-19T05:24:42;23.50;33.10
29539;DHT22;16482;51.046;4.498;2023-05-19T05:27:08;23.50;33.00
29539;DHT22;16482;51.046;4.498;2023-05-19T05:29:37;23.50;33.00
29539;DHT22;16482;51.046;4.498;2023-05-19T05:32:06;23.50;33.00
29539;DHT22;16482;51.046;4.498;2023-05-19T05:34:40;23.50;33.00
29539;DHT22;16482;51.046;4.498;2023-05-19T05:37:08;23.60;33.10
29539;DHT22;16482;51.046;4.498;2023-05-19T05:39:37;23.50;33.20
29539;DHT22;16482;51.046;4.498;2023-05-19T05:42:06;23.60;33.20
29539;DHT22;16482;51.046;4.498;2023-05-19T05:44:36;23.50;33.20
29539;DHT22;16482;51.046;4.498;2023-05-19T05:47:08;23.50;33.20
29539;DHT22;16482;51.046;4.498;2023-05-19T05:49:36;23.50;33.40
29539;DHT22;16482;51.046;4.498;2023-05-19T05:52:11;23.50;33.40
29539;DHT22;16482;51.046;4.498;2023-05-19T05:54:37;23.60;33.40
29539;DHT22;16482;51.046;4.498;2023-05-19T05:57:06;23.50;33.40
29539;DHT22;16482;51.046;4.498;2023-05-19T05:59:35;23.60;33.40
29539;DHT22;16482;51.046;4.498;2023-05-19T06:02:07;23.60;33.40
29539;DHT22;16482;51.046;4.498;2023-05-19T06:04:42;23.60;33.30
29539;DHT22;16482;51.046;4.498;2023-05-19T06:07:08;23.60;33.20
29539;DHT22;16482;51.046;4.498;2023-05-19T06:09:34;23.60;33.20
29539;DHT22;16482;51.046;4.498;2023-05-19T06:12:06;23.70;33.20
29539;DHT22;16482;51.046;4.498;2023-05-19T06:14:35;23.70;33.10
29539;DHT22;16482;51.046;4.498;2023-05-19T06:17:10;23.70;33.10
29539;DHT22;16482;51.046;4.498;2023-05-19T06:19:38;23.70;33.10
29539;DHT22;16482;51.046;4.498;2023-05-19T06:22:06;23.70;33.10
29539;DHT22;16482;51.046;4.498;2023-05-19T06:24:37;23.70;33.00
29539;DHT22;16482;51.046;4.498;2023-05-19T06:27:03;23.70;33.00
29539;DHT22;16482;51.046;4.498;2023-05-19T06:29:37;23.70;33.00
29539;DHT22;16482;51.046;4.498;2023-05-19T06:32:06;23.80;33.00
29539;DHT22;16482;51.046;4.498;2023-05-19T06:34:39;23.80;33.10
29539;DHT22;16482;51.046;4.498;2023-05-19T06:37:05;23.80;33.10
29539;DHT22;16482;51.046;4.498;2023-05-19T06:39:40;23.80;33.20
29539;DHT22;16482;51.046;4.498;2023-05-19T06:42:06;23.80;33.40
29539;DHT22;16482;51.046;4.498;2023-05-19T06:44:35;23.80;33.60
29539;DHT22;16482;51.046;4.498;2023-05-19T06:47:07;23.90;33.70
29539;DHT22;16482;51.046;4.498;2023-05-19T06:49:43;24.10;33.70
29539;DHT22;16482;51.046;4.498;2023-05-19T06:52:10;24.40;33.30
29539;DHT22;16482;51.046;4.498;2023-05-19T06:54:36;24.50;33.00
29539;DHT22;16482;51.046;4.498;2023-05-19T06:57:05;24.70;32.70
29539;DHT22;16482;51.046;4.498;2023-05-19T06:59:38;24.90;32.40
29539;DHT22;16482;51.046;4.498;2023-05-19T07:02:08;25.10;32.20
29539;DHT22;16482;51.046;4.498;2023-05-19T07:04:37;25.20;32.00
29539;DHT22;16482;51.046;4.498;2023-05-19T07:07:08;25.30;31.90
29539;DHT22;16482;51.046;4.498;2023-05-19T07:09:41;25.40;31.80
29539;DHT22;16482;51.046;4.498;2023-05-19T07:12:07;25.50;31.80
29539;DHT22;16482;51.046;4.498;2023-05-19T07:14:36;25.50;31.80
29539;DHT22;16482;51.046;4.498;2023-05-19T07:17:05;25.60;31.60
29539;DHT22;16482;51.046;4.498;2023-05-19T07:19:40;25.70;31.50
29539;DHT22;16482;51.046;4.498;2023-05-19T07:22:06;25.70;31.40
29539;DHT22;16482;51.046;4.498;2023-05-19T07:24:34;25.70;31.60
29539;DHT22;16482;51.046;4.498;2023-05-19T07:27:08;25.80;31.50
29539;DHT22;16482;51.046;4.498;2023-05-19T07:29:35;25.80;31.50
29539;DHT22;16482;51.046;4.498;2023-05-19T07:32:08;25.70;31.70
29539;DHT22;16482;51.046;4.498;2023-05-19T07:34:34;25.60;31.80
29539;DHT22;16482;51.046;4.498;2023-05-19T07:37:06;25.60;31.90
29539;DHT22;16482;51.046;4.498;2023-05-19T07:39:35;25.60;32.00
29539;DHT22;16482;51.046;4.498;2023-05-19T07:42:07;25.50;31.90
29539;DHT22;16482;51.046;4.498;2023-05-19T07:44:41;25.50;32.10
29539;DHT22;16482;51.046;4.498;2023-05-19T07:47:07;25.40;32.10
29539;DHT22;16482;51.046;4.498;2023-05-19T07:49:36;25.40;32.20
29539;DHT22;16482;51.046;4.498;2023-05-19T07:52:05;25.30;32.50
29539;DHT22;16482;51.046;4.498;2023-05-19T07:54:40;25.30;32.40
29539;DHT22;16482;51.046;4.498;2023-05-19T07:57:06;25.30;32.60
29539;DHT22;16482;51.046;4.498;2023-05-19T07:59:35;25.20;32.90
29539;DHT22;16482;51.046;4.498;2023-05-19T08:02:12;25.20;33.30
29539;DHT22;16482;51.046;4.498;2023-05-19T08:04:38;25.10;33.40
29539;DHT22;16482;51.046;4.498;2023-05-19T08:07:06;25.00;33.60
29539;DHT22;16482;51.046;4.498;2023-05-19T08:09:41;25.00;33.90
29539;DHT22;16482;51.046;4.498;2023-05-19T08:12:07;25.00;34.00
29539;DHT22;16482;51.046;4.498;2023-05-19T08:14:40;25.00;34.20
29539;DHT22;16482;51.046;4.498;2023-05-19T08:17:06;25.00;34.30
29539;DHT22;16482;51.046;4.498;2023-05-19T08:19:39;25.00;34.40
29539;DHT22;16482;51.046;4.498;2023-05-19T08:22:06;25.00;34.20
29539;DHT22;16482;51.046;4.498;2023-05-19T08:24:37;25.00;34.20
29539;DHT22;16482;51.046;4.498;2023-05-19T08:27:06;25.00;34.20
29539;DHT22;16482;51.046;4.498;2023-05-19T08:29:35;25.10;34.40
29539;DHT22;16482;51.046;4.498;2023-05-19T08:32:11;25.00;34.60
29539;DHT22;16482;51.046;4.498;2023-05-19T08:34:37;25.00;34.90
29539;DHT22;16482;51.046;4.498;2023-05-19T08:37:06;25.10;34.90
29539;DHT22;16482;51.046;4.498;2023-05-19T08:39:40;25.00;35.00
29539;DHT22;16482;51.046;4.498;2023-05-19T08:42:08;25.10;35.00
29539;DHT22;16482;51.046;4.498;2023-05-19T08:44:37;25.10;35.10
29539;DHT22;16482;51.046;4.498;2023-05-19T08:47:07;25.10;35.10
29539;DHT22;16482;51.046;4.498;2023-05-19T08:49:45;25.10;35.10
29539;DHT22;16482;51.046;4.498;2023-05-19T08:54:48;25.00;35.10
29539;DHT22;16482;51.046;4.498;2023-05-19T08:57:18;25.10;35.20
29539;DHT22;16482;51.046;4.498;2023-05-19T08:59:45;25.10;35.20
29539;DHT22;16482;51.046;4.498;2023-05-19T09:02:12;25.10;35.20
29539;DHT22;16482;51.046;4.498;2023-05-19T09:04:39;25.10;35.20
29539;DHT22;16482;51.046;4.498;2023-05-19T09:07:06;25.10;35.20
29539;DHT22;16482;51.046;4.498;2023-05-19T09:09:36;25.10;35.30
29539;DHT22;16482;51.046;4.498;2023-05-19T09:12:09;25.10;35.20
29539;DHT22;16482;51.046;4.498;2023-05-19T09:14:36;25.10;35.40
29539;DHT22;16482;51.046;4.498;2023-05-19T09:17:11;25.10;36.00
29539;DHT22;16482;51.046;4.498;2023-05-19T09:19:42;25.10;35.60
29539;DHT22;16482;51.046;4.498;2023-05-19T09:22:08;25.10;35.60
29539;DHT22;16482;51.046;4.498;2023-05-19T09:24:41;25.00;35.60
29539;DHT22;16482;51.046;4.498;2023-05-19T09:27:08;25.00;35.70
29539;DHT22;16482;51.046;4.498;2023-05-19T09:29:42;25.00;35.60
29539;DHT22;16482;51.046;4.498;2023-05-19T09:32:08;25.10;35.50
29539;DHT22;16482;51.046;4.498;2023-05-19T09:34:40;25.00;35.50
29539;DHT22;16482;51.046;4.498;2023-05-19T09:37:06;25.10;35.60
29539;DHT22;16482;51.046;4.498;2023-05-19T09:39:37;25.00;35.40
29539;DHT22;16482;51.046;4.498;2023-05-19T09:42:13;25.00;35.40
29539;DHT22;16482;51.046;4.498;2023-05-19T09:44:40;25.00;35.30
29539;DHT22;16482;51.046;4.498;2023-05-19T09:47:08;25.00;35.30
29539;DHT22;16482;51.046;4.498;2023-05-19T09:49:35;25.00;35.20
29539;DHT22;16482;51.046;4.498;2023-05-19T09:52:06;25.00;35.30
29539;DHT22;16482;51.046;4.498;2023-05-19T09:54:38;25.00;35.30
29539;DHT22;16482;51.046;4.498;2023-05-19T09:57:07;25.00;35.10
29539;DHT22;16482;51.046;4.498;2023-05-19T09:59:41;25.00;35.10
29539;DHT22;16482;51.046;4.498;2023-05-19T10:02:14;25.00;35.10
29539;DHT22;16482;51.046;4.498;2023-05-19T10:04:41;25.00;35.20
29539;DHT22;16482;51.046;4.498;2023-05-19T10:07:09;25.00;35.10
29539;DHT22;16482;51.046;4.498;2023-05-19T10:09:37;25.00;35.20
29539;DHT22;16482;51.046;4.498;2023-05-19T10:12:06;25.00;35.00
29539;DHT22;16482;51.046;4.498;2023-05-19T10:14:36;25.00;34.90
29539;DHT22;16482;51.046;4.498;2023-05-19T10:17:07;25.00;34.90
29539;DHT22;16482;51.046;4.498;2023-05-19T10:19:37;25.00;34.80
29539;DHT22;16482;51.046;4.498;2023-05-19T10:22:04;25.00;34.90
29539;DHT22;16482;51.046;4.498;2023-05-19T10:24:39;25.00;34.70
29539;DHT22;16482;51.046;4.498;2023-05-19T10:27:10;25.00;34.80
29539;DHT22;16482;51.046;4.498;2023-05-19T10:29:43;25.00;34.70
29539;DHT22;16482;51.046;4.498;2023-05-19T10:32:13;25.00;34.70
29539;DHT22;16482;51.046;4.498;2023-05-19T10:40:09;25.00;34.40
29539;DHT22;16482;51.046;4.498;2023-05-19T10:42:41;25.00;34.30
29539;DHT22;16482;51.046;4.498;2023-05-19T10:45:35;25.00;34.10
29539;DHT22;16482;51.046;4.498;2023-05-19T10:48:03;24.90;33.90
29539;DHT22;16482;51.046;4.498;2023-05-19T10:50:35;24.90;34.00
29539;DHT22;16482;51.046;4.498;2023-05-19T10:53:02;25.00;33.90
29539;DHT22;16482;51.046;4.498;2023-05-19T10:55:51;24.90;33.80
29539;DHT22;16482;51.046;4.498;2023-05-19T11:01:18;25.00;33.90
29539;DHT22;16482;51.046;4.498;2023-05-19T11:03:51;24.90;33.40
29539;DHT22;16482;51.046;4.498;2023-05-19T11:08:45;24.90;33.70
29539;DHT22;16482;51.046;4.498;2023-05-19T11:11:15;24.90;33.50
29539;DHT22;16482;51.046;4.498;2023-05-19T11:13:53;24.90;33.20
29539;DHT22;16482;51.046;4.498;2023-05-19T11:16:27;24.90;33.10
29539;DHT22;16482;51.046;4.498;2023-05-19T11:19:05;24.90;33.00
29539;DHT22;16482;51.046;4.498;2023-05-19T11:21:46;24.90;33.50
29539;DHT22;16482;51.046;4.498;2023-05-19T11:24:36;24.90;32.70
29539;DHT22;16482;51.046;4.498;2023-05-19T11:29:51;24.90;32.80
29539;DHT22;16482;51.046;4.498;2023-05-19T11:32:19;24.90;32.70
29539;DHT22;16482;51.046;4.498;2023-05-19T11:34:47;24.80;32.50
29539;DHT22;16482;51.046;4.498;2023-05-19T11:37:13;24.80;32.60
29539;DHT22;16482;51.046;4.498;2023-05-19T11:39:40;24.90;32.50
29539;DHT22;16482;51.046;4.498;2023-05-19T11:42:08;24.80;32.70
29539;DHT22;16482;51.046;4.498;2023-05-19T11:44:35;24.90;32.40
29539;DHT22;16482;51.046;4.498;2023-05-19T11:47:05;24.90;32.40
29539;DHT22;16482;51.046;4.498;2023-05-19T11:49:52;24.90;32.40
29539;DHT22;16482;51.046;4.498;2023-05-19T11:52:23;24.90;32.50
29539;DHT22;16482;51.046;4.498;2023-05-19T11:54:49;24.80;32.10
29539;DHT22;16482;51.046;4.498;2023-05-19T11:57:15;24.80;32.10
29539;DHT22;16482;51.046;4.498;2023-05-19T11:59:41;24.80;32.10
29539;DHT22;16482;51.046;4.498;2023-05-19T12:04:41;24.80;32.30
29539;DHT22;16482;51.046;4.498;2023-05-19T12:07:07;24.80;32.10
29539;DHT22;16482;51.046;4.498;2023-05-19T12:09:36;24.80;31.90
29539;DHT22;16482;51.046;4.498;2023-05-19T12:12:11;24.80;31.80
29539;DHT22;16482;51.046;4.498;2023-05-19T12:14:37;24.80;31.70
29539;DHT22;16482;51.046;4.498;2023-05-19T12:17:14;24.80;31.70
29539;DHT22;16482;51.046;4.498;2023-05-19T12:19:43;24.80;31.50
29539;DHT22;16482;51.046;4.498;2023-05-19T12:22:09;24.80;31.50
29539;DHT22;16482;51.046;4.498;2023-05-19T12:24:37;24.80;31.40
29539;DHT22;16482;51.046;4.498;2023-05-19T12:27:21;24.80;31.40
29539;DHT22;16482;51.046;4.498;2023-05-19T12:29:51;24.90;32.30
29539;DHT22;16482;51.046;4.498;2023-05-19T12:32:17;25.00;31.60
29539;DHT22;16482;51.046;4.498;2023-05-19T12:34:44;25.00;31.70
29539;DHT22;16482;51.046;4.498;2023-05-19T12:37:10;25.00;31.70
29539;DHT22;16482;51.046;4.498;2023-05-19T12:39:40;25.10;31.70
29539;DHT22;16482;51.046;4.498;2023-05-19T12:42:10;25.10;32.20
29539;DHT22;16482;51.046;4.498;2023-05-19T12:44:45;25.20;32.20
29539;DHT22;16482;51.046;4.498;2023-05-19T12:47:11;25.20;32.10
29539;DHT22;16482;51.046;4.498;2023-05-19T12:49:59;25.20;32.10
29539;DHT22;16482;51.046;4.498;2023-05-19T12:52:27;25.20;31.90
29539;DHT22;16482;51.046;4.498;2023-05-19T12:55:07;25.20;32.00
29539;DHT22;16482;51.046;4.498;2023-05-19T12:57:38;25.30;31.90
29539;DHT22;16482;51.046;4.498;2023-05-19T13:00:07;25.20;31.70
29539;DHT22;16482;51.046;4.498;2023-05-19T13:02:35;25.20;31.60
29539;DHT22;16482;51.046;4.498;2023-05-19T13:05:37;25.20;31.90
29539;DHT22;16482;51.046;4.498;2023-05-19T13:08:11;25.20;31.90
29539;DHT22;16482;51.046;4.498;2023-05-19T13:10:39;25.20;32.30
29539;DHT22;16482;51.046;4.498;2023-05-19T13:13:06;25.20;31.70
29539;DHT22;16482;51.046;4.498;2023-05-19T13:15:33;25.20;31.70
29539;DHT22;16482;51.046;4.498;2023-05-19T13:18:01;25.20;31.60
29539;DHT22;16482;51.046;4.498;2023-05-19T13:20:28;25.20;31.50
29539;DHT22;16482;51.046;4.498;2023-05-19T13:22:57;25.20;31.50
29539;DHT22;16482;51.046;4.498;2023-05-19T13:25:26;25.20;31.40
29539;DHT22;16482;51.046;4.498;2023-05-19T13:27:55;25.20;31.40
29539;DHT22;16482;51.046;4.498;2023-05-19T13:30:28;25.20;31.30
29539;DHT22;16482;51.046;4.498;2023-05-19T13:32:57;25.20;31.20
29539;DHT22;16482;51.046;4.498;2023-05-19T13:35:31;25.20;31.20
29539;DHT22;16482;51.046;4.498;2023-05-19T13:38:03;25.20;31.20
29539;DHT22;16482;51.046;4.498;2023-05-19T13:40:30;25.20;31.10
29539;DHT22;16482;51.046;4.498;2023-05-19T13:42:59;25.20;31.10
29539;DHT22;16482;51.046;4.498;2023-05-19T13:45:28;25.20;31.10
29539;DHT22;16482;51.046;4.498;2023-05-19T13:47:57;25.20;31.40
29539;DHT22;16482;51.046;4.498;2023-05-19T13:50:26;25.20;31.20
29539;DHT22;16482;51.046;4.498;2023-05-19T13:53:01;25.20;31.20
29539;DHT22;16482;51.046;4.498;2023-05-19T13:55:28;25.20;31.70
29539;DHT22;16482;51.046;4.498;2023-05-19T13:58:01;25.10;31.50
29539;DHT22;16482;51.046;4.498;2023-05-19T14:00:28;25.10;31.60
29539;DHT22;16482;51.046;4.498;2023-05-19T14:02:57;25.00;31.40
29539;DHT22;16482;51.046;4.498;2023-05-19T14:05:27;25.00;31.60
29539;DHT22;16482;51.046;4.498;2023-05-19T14:07:56;25.00;31.70
29539;DHT22;16482;51.046;4.498;2023-05-19T14:10:28;25.00;31.80
29539;DHT22;16482;51.046;4.498;2023-05-19T14:12:57;25.00;31.80
29539;DHT22;16482;51.046;4.498;2023-05-19T14:15:33;25.00;31.80
29539;DHT22;16482;51.046;4.498;2023-05-19T14:18:02;25.00;31.80
29539;DHT22;16482;51.046;4.498;2023-05-19T14:20:28;25.00;32.40
29539;DHT22;16482;51.046;4.498;2023-05-19T14:22:57;25.00;31.90
29539;DHT22;16482;51.046;4.498;2023-05-19T14:25:26;24.90;31.80
29539;DHT22;16482;51.046;4.498;2023-05-19T14:27:58;25.00;31.80
29539;DHT22;16482;51.046;4.498;2023-05-19T14:30:27;25.00;31.80
29539;DHT22;16482;51.046;4.498;2023-05-19T14:33:00;24.90;31.70
29539;DHT22;16482;51.046;4.498;2023-05-19T14:35:26;24.90;31.70
29539;DHT22;16482;51.046;4.498;2023-05-19T14:37:55;25.00;31.80
29539;DHT22;16482;51.046;4.498;2023-05-19T14:40:27;24.90;31.80
29539;DHT22;16482;51.046;4.498;2023-05-19T14:43:00;24.80;31.80
29539;DHT22;16482;51.046;4.498;2023-05-19T14:45:26;24.90;31.80
29539;DHT22;16482;51.046;4.498;2023-05-19T14:48:00;24.90;31.80
29539;DHT22;16482;51.046;4.498;2023-05-19T14:50:27;24.90;31.70
29539;DHT22;16482;51.046;4.498;2023-05-19T14:52:56;24.90;31.70
29539;DHT22;16482;51.046;4.498;2023-05-19T14:55:31;24.90;31.70
29539;DHT22;16482;51.046;4.498;2023-05-19T14:57:57;24.90;31.60
29539;DHT22;16482;51.046;4.498;2023-05-19T15:00:26;24.90;31.60
29539;DHT22;16482;51.046;4.498;2023-05-19T15:03:01;24.90;31.50
29539;DHT22;16482;51.046;4.498;2023-05-19T15:05:27;24.90;31.60
29539;DHT22;16482;51.046;4.498;2023-05-19T15:08:02;24.90;31.60
29539;DHT22;16482;51.046;4.498;2023-05-19T15:10:28;24.90;31.60
29539;DHT22;16482;51.046;4.498;2023-05-19T15:12:57;24.90;31.50
29539;DHT22;16482;51.046;4.498;2023-05-19T15:15:27;24.90;31.50
29539;DHT22;16482;51.046;4.498;2023-05-19T15:17:58;24.90;31.40
29539;DHT22;16482;51.046;4.498;2023-05-19T15:20:32;24.90;31.40
29539;DHT22;16482;51.046;4.498;2023-05-19T15:22:58;24.90;31.40
29539;DHT22;16482;51.046;4.498;2023-05-19T15:25:26;24.80;31.40
29539;DHT22;16482;51.046;4.498;2023-05-19T15:27:57;24.90;31.40
29539;DHT22;16482;51.046;4.498;2023-05-19T15:30:26;24.80;31.30
29539;DHT22;16482;51.046;4.498;2023-05-19T15:32:57;24.90;31.40
29539;DHT22;16482;51.046;4.498;2023-05-19T15:35:25;24.90;31.40
29539;DHT22;16482;51.046;4.498;2023-05-19T15:37:59;24.80;31.30
29539;DHT22;16482;51.046;4.498;2023-05-19T15:40:31;24.80;31.40
29539;DHT22;16482;51.046;4.498;2023-05-19T15:42:57;24.80;31.30
29539;DHT22;16482;51.046;4.498;2023-05-19T15:45:30;24.80;31.20
29539;DHT22;16482;51.046;4.498;2023-05-19T15:47:56;24.90;31.20
29539;DHT22;16482;51.046;4.498;2023-05-19T15:50:30;24.80;31.80
29539;DHT22;16482;51.046;4.498;2023-05-19T15:52:58;24.90;31.30
29539;DHT22;16482;51.046;4.498;2023-05-19T15:55:27;24.90;31.20
29539;DHT22;16482;51.046;4.498;2023-05-19T15:57:56;24.90;31.20
29539;DHT22;16482;51.046;4.498;2023-05-19T16:00:30;24.90;31.20
29539;DHT22;16482;51.046;4.498;2023-05-19T16:02:58;24.90;31.10
29539;DHT22;16482;51.046;4.498;2023-05-19T16:05:33;24.90;31.20
29539;DHT22;16482;51.046;4.498;2023-05-19T16:07:59;24.90;31.20
29539;DHT22;16482;51.046;4.498;2023-05-19T16:10:28;24.90;31.30
29539;DHT22;16482;51.046;4.498;2023-05-19T16:13:07;24.90;31.30
29539;DHT22;16482;51.046;4.498;2023-05-19T16:29:22;24.80;31.50
29539;DHT22;16482;51.046;4.498;2023-05-19T16:31:48;24.70;31.50
29539;DHT22;16482;51.046;4.498;2023-05-19T16:34:14;24.80;31.60
29539;DHT22;16482;51.046;4.498;2023-05-19T16:36:40;24.80;31.60
29539;DHT22;16482;51.046;4.498;2023-05-19T16:39:06;24.70;31.70
29539;DHT22;16482;51.046;4.498;2023-05-19T16:41:31;24.80;32.10
29539;DHT22;16482;51.046;4.498;2023-05-19T16:43:58;24.80;32.60
29539;DHT22;16482;51.046;4.498;2023-05-19T16:46:27;24.80;33.60